sensor_id;sensor_type;location;lat;lon;timestamp;pressure;altitude;pressure_sealevel;temperature;humidity
84683;BME280;74905;44.124;18.116;2024-03-07T00:01:29;96850.59;;;7.59;80.76
84683;BME280;74905;44.124;18.116;2024-03-07T00:03:55;96850.69;;;7.61;80.56
84683;BME280;74905;44.124;18.116;2024-03-07T00:06:20;96849.53;;;7.53;81.10
84683;BME280;74905;44.124;18.116;2024-03-07T00:08:46;96852.50;;;7.57;80.65
84683;BME280;74905;44.124;18.116;2024-03-07T00:11:12;96843.75;;;7.48;81.29
84683;BME280;74905;44.124;18.116;2024-03-07T00:13:37;96844.28;;;7.45;81.25
84683;BME280;74905;44.124;18.116;2024-03-07T00:16:03;96843.44;;;7.42;81.76
84683;BME280;74905;44.124;18.116;2024-03-07T00:18:29;96831.84;;;7.46;81.08
84683;BME280;74905;44.124;18.116;2024-03-07T00:20:54;96831.75;;;7.44;82.12
84683;BME280;74905;44.124;18.116;2024-03-07T00:23:21;96831.13;;;7.45;81.32
84683;BME280;74905;44.124;18.116;2024-03-07T00:25:46;96833.91;;;7.45;81.62
84683;BME280;74905;44.124;18.116;2024-03-07T00:28:15;96831.31;;;7.36;80.86
84683;BME280;74905;44.124;18.116;2024-03-07T00:30:45;96828.56;;;7.36;81.27
84683;BME280;74905;44.124;18.116;2024-03-07T00:33:11;96829.16;;;7.34;81.41
84683;BME280;74905;44.124;18.116;2024-03-07T00:35:37;96829.66;;;7.31;80.95
84683;BME280;74905;44.124;18.116;2024-03-07T00:38:03;96831.41;;;7.38;80.44
84683;BME280;74905;44.124;18.116;2024-03-07T00:40:29;96832.97;;;7.41;80.48
84683;BME280;74905;44.124;18.116;2024-03-07T00:42:55;96828.03;;;7.39;79.80
84683;BME280;74905;44.124;18.116;2024-03-07T00:45:20;96823.63;;;7.34;80.74
84683;BME280;74905;44.124;18.116;2024-03-07T00:47:46;96828.19;;;7.30;81.20
84683;BME280;74905;44.124;18.116;2024-03-07T00:50:14;96823.63;;;7.34;81.16
84683;BME280;74905;44.124;18.116;2024-03-07T00:52:39;96823.81;;;7.38;80.72
84683;BME280;74905;44.124;18.116;2024-03-07T00:55:06;96832.00;;;7.36;80.94
84683;BME280;74905;44.124;18.116;2024-03-07T00:57:34;96828.75;;;7.40;80.90
84683;BME280;74905;44.124;18.116;2024-03-07T01:00:00;96826.13;;;7.42;80.62
84683;BME280;74905;44.124;18.116;2024-03-07T01:02:26;96822.34;;;7.49;81.02
84683;BME280;74905;44.124;18.116;2024-03-07T01:04:51;96816.59;;;7.45;80.11
84683;BME280;74905;44.124;18.116;2024-03-07T01:07:18;96825.00;;;7.47;80.70
84683;BME280;74905;44.124;18.116;2024-03-07T01:09:44;96824.66;;;7.41;79.96
84683;BME280;74905;44.124;18.116;2024-03-07T01:12:10;96825.06;;;7.35;81.37
84683;BME280;74905;44.124;18.116;2024-03-07T01:14:36;96831.09;;;7.32;81.53
84683;BME280;74905;44.124;18.116;2024-03-07T01:17:02;96822.44;;;7.26;81.80
84683;BME280;74905;44.124;18.116;2024-03-07T01:19:27;96821.81;;;7.27;82.49
84683;BME280;74905;44.124;18.116;2024-03-07T01:21:53;96821.22;;;7.29;81.72
84683;BME280;74905;44.124;18.116;2024-03-07T01:24:18;96820.00;;;7.32;80.75
84683;BME280;74905;44.124;18.116;2024-03-07T01:26:46;96814.00;;;7.35;81.68
84683;BME280;74905;44.124;18.116;2024-03-07T01:29:11;96824.22;;;7.33;80.60
84683;BME280;74905;44.124;18.116;2024-03-07T01:31:37;96818.81;;;7.35;80.97
84683;BME280;74905;44.124;18.116;2024-03-07T01:34:02;96820.34;;;7.38;81.33
84683;BME280;74905;44.124;18.116;2024-03-07T01:36:28;96819.56;;;7.49;80.83
84683;BME280;74905;44.124;18.116;2024-03-07T01:38:54;96822.81;;;7.45;80.56
84683;BME280;74905;44.124;18.116;2024-03-07T01:41:20;96822.81;;;7.45;80.16
84683;BME280;74905;44.124;18.116;2024-03-07T01:43:46;96817.19;;;7.43;80.76
84683;BME280;74905;44.124;18.116;2024-03-07T01:46:12;96815.03;;;7.42;81.17
84683;BME280;74905;44.124;18.116;2024-03-07T01:48:38;96812.56;;;7.34;80.71
84683;BME280;74905;44.124;18.116;2024-03-07T01:51:05;96810.59;;;7.37;81.37
84683;BME280;74905;44.124;18.116;2024-03-07T01:53:32;96809.66;;;7.32;82.02
84683;BME280;74905;44.124;18.116;2024-03-07T01:55:59;96805.78;;;7.37;81.81
84683;BME280;74905;44.124;18.116;2024-03-07T01:58:25;96801.34;;;7.32;81.67
84683;BME280;74905;44.124;18.116;2024-03-07T02:00:51;96810.72;;;7.39;81.08
84683;BME280;74905;44.124;18.116;2024-03-07T02:03:17;96803.13;;;7.39;81.81
84683;BME280;74905;44.124;18.116;2024-03-07T02:05:43;96802.69;;;7.31;81.79
84683;BME280;74905;44.124;18.116;2024-03-07T02:08:09;96804.63;;;7.29;82.48
84683;BME280;74905;44.124;18.116;2024-03-07T02:10:34;96803.28;;;7.30;82.95
84683;BME280;74905;44.124;18.116;2024-03-07T02:13:00;96806.91;;;7.32;82.34
84683;BME280;74905;44.124;18.116;2024-03-07T02:15:26;96807.00;;;7.34;81.93
84683;BME280;74905;44.124;18.116;2024-03-07T02:17:53;96800.31;;;7.26;82.69
84683;BME280;74905;44.124;18.116;2024-03-07T02:20:18;96793.22;;;7.23;82.77
84683;BME280;74905;44.124;18.116;2024-03-07T02:22:44;96799.59;;;7.25;82.97
84683;BME280;74905;44.124;18.116;2024-03-07T02:25:10;96793.66;;;7.31;83.39
84683;BME280;74905;44.124;18.116;2024-03-07T02:27:38;96796.19;;;7.27;82.52
84683;BME280;74905;44.124;18.116;2024-03-07T02:30:04;96804.41;;;7.25;82.68
84683;BME280;74905;44.124;18.116;2024-03-07T02:32:34;96806.72;;;7.17;83.39
84683;BME280;74905;44.124;18.116;2024-03-07T02:35:00;96801.19;;;7.17;84.32
84683;BME280;74905;44.124;18.116;2024-03-07T02:37:25;96803.59;;;7.10;83.96
84683;BME280;74905;44.124;18.116;2024-03-07T02:39:51;96802.16;;;7.09;83.98
84683;BME280;74905;44.124;18.116;2024-03-07T02:42:16;96803.53;;;6.97;84.49
84683;BME280;74905;44.124;18.116;2024-03-07T02:44:42;96807.13;;;6.99;84.75
84683;BME280;74905;44.124;18.116;2024-03-07T02:47:08;96802.47;;;6.90;85.45
84683;BME280;74905;44.124;18.116;2024-03-07T02:49:33;96806.91;;;6.95;85.45
84683;BME280;74905;44.124;18.116;2024-03-07T02:51:59;96802.38;;;6.88;85.69
84683;BME280;74905;44.124;18.116;2024-03-07T02:54:24;96813.19;;;6.84;85.65
84683;BME280;74905;44.124;18.116;2024-03-07T02:56:50;96810.41;;;6.84;85.83
84683;BME280;74905;44.124;18.116;2024-03-07T02:59:15;96816.66;;;6.85;85.45
84683;BME280;74905;44.124;18.116;2024-03-07T03:01:42;96814.63;;;6.85;85.97
84683;BME280;74905;44.124;18.116;2024-03-07T03:04:07;96822.81;;;6.83;86.11
84683;BME280;74905;44.124;18.116;2024-03-07T03:06:33;96829.19;;;6.74;85.99
84683;BME280;74905;44.124;18.116;2024-03-07T03:08:59;96828.34;;;6.71;86.01
84683;BME280;74905;44.124;18.116;2024-03-07T03:11:24;96824.78;;;6.69;87.00
84683;BME280;74905;44.124;18.116;2024-03-07T03:13:51;96827.28;;;6.65;86.47
84683;BME280;74905;44.124;18.116;2024-03-07T03:16:17;96829.66;;;6.70;86.83
84683;BME280;74905;44.124;18.116;2024-03-07T03:18:43;96826.31;;;6.72;87.21
84683;BME280;74905;44.124;18.116;2024-03-07T03:21:08;96827.03;;;6.72;86.95
84683;BME280;74905;44.124;18.116;2024-03-07T03:23:34;96832.44;;;6.70;86.97
84683;BME280;74905;44.124;18.116;2024-03-07T03:26:00;96831.72;;;6.70;86.55
84683;BME280;74905;44.124;18.116;2024-03-07T03:28:25;96822.59;;;6.67;86.23
84683;BME280;74905;44.124;18.116;2024-03-07T03:30:51;96827.41;;;6.67;87.18
84683;BME280;74905;44.124;18.116;2024-03-07T03:33:17;96827.16;;;6.63;86.76
84683;BME280;74905;44.124;18.116;2024-03-07T03:35:43;96834.38;;;6.56;86.54
84683;BME280;74905;44.124;18.116;2024-03-07T03:38:09;96838.00;;;6.59;87.16
84683;BME280;74905;44.124;18.116;2024-03-07T03:40:35;96836.69;;;6.60;87.29
84683;BME280;74905;44.124;18.116;2024-03-07T03:43:01;96842.09;;;6.58;86.64
84683;BME280;74905;44.124;18.116;2024-03-07T03:45:27;96831.28;;;6.50;86.58
84683;BME280;74905;44.124;18.116;2024-03-07T03:47:53;96834.63;;;6.49;86.98
84683;BME280;74905;44.124;18.116;2024-03-07T03:50:19;96830.19;;;6.44;85.83
84683;BME280;74905;44.124;18.116;2024-03-07T03:52:45;96833.66;;;6.44;85.55
84683;BME280;74905;44.124;18.116;2024-03-07T03:55:11;96832.13;;;6.41;85.45
84683;BME280;74905;44.124;18.116;2024-03-07T03:57:41;96820.44;;;6.43;86.42
84683;BME280;74905;44.124;18.116;2024-03-07T04:00:09;96836.09;;;6.38;86.41
84683;BME280;74905;44.124;18.116;2024-03-07T04:02:41;96829.38;;;6.41;86.76
84683;BME280;74905;44.124;18.116;2024-03-07T04:05:09;96839.69;;;6.41;86.77
84683;BME280;74905;44.124;18.116;2024-03-07T04:07:35;96837.41;;;6.49;86.66
84683;BME280;74905;44.124;18.116;2024-03-07T04:10:01;96840.38;;;6.53;86.26
84683;BME280;74905;44.124;18.116;2024-03-07T04:12:28;96842.81;;;6.58;86.22
84683;BME280;74905;44.124;18.116;2024-03-07T04:14:54;96840.16;;;6.60;86.94
84683;BME280;74905;44.124;18.116;2024-03-07T04:17:21;96844.00;;;6.67;86.56
84683;BME280;74905;44.124;18.116;2024-03-07T04:19:47;96844.25;;;6.59;86.03
84683;BME280;74905;44.124;18.116;2024-03-07T04:22:12;96842.31;;;6.62;86.12
84683;BME280;74905;44.124;18.116;2024-03-07T04:24:38;96843.28;;;6.55;85.36
84683;BME280;74905;44.124;18.116;2024-03-07T04:27:06;96850.50;;;6.48;84.39
84683;BME280;74905;44.124;18.116;2024-03-07T04:29:35;96849.28;;;6.51;85.00
84683;BME280;74905;44.124;18.116;2024-03-07T04:32:02;96845.69;;;6.49;84.82
84683;BME280;74905;44.124;18.116;2024-03-07T04:34:29;96853.16;;;6.46;84.33
84683;BME280;74905;44.124;18.116;2024-03-07T04:36:59;96854.72;;;6.38;83.38
84683;BME280;74905;44.124;18.116;2024-03-07T04:39:29;96853.13;;;6.34;84.09
84683;BME280;74905;44.124;18.116;2024-03-07T04:42:02;96857.34;;;6.35;83.81
84683;BME280;74905;44.124;18.116;2024-03-07T04:44:28;96863.59;;;6.36;84.20
84683;BME280;74905;44.124;18.116;2024-03-07T04:46:54;96866.13;;;6.32;84.47
84683;BME280;74905;44.124;18.116;2024-03-07T04:49:23;96868.28;;;6.22;84.05
84683;BME280;74905;44.124;18.116;2024-03-07T04:51:53;96875.47;;;6.15;85.06
84683;BME280;74905;44.124;18.116;2024-03-07T04:54:20;96871.38;;;6.16;85.22
84683;BME280;74905;44.124;18.116;2024-03-07T04:56:46;96862.88;;;6.12;85.35
84683;BME280;74905;44.124;18.116;2024-03-07T04:59:16;96873.78;;;6.10;85.17
84683;BME280;74905;44.124;18.116;2024-03-07T05:01:45;96871.25;;;6.03;84.53
84683;BME280;74905;44.124;18.116;2024-03-07T05:04:15;96873.63;;;5.96;84.84
84683;BME280;74905;44.124;18.116;2024-03-07T05:06:41;96876.88;;;5.93;86.11
84683;BME280;74905;44.124;18.116;2024-03-07T05:09:08;96879.66;;;5.93;86.67
84683;BME280;74905;44.124;18.116;2024-03-07T05:11:54;96881.19;;;5.96;87.09
84683;BME280;74905;44.124;18.116;2024-03-07T05:14:20;96884.69;;;5.96;86.23
84683;BME280;74905;44.124;18.116;2024-03-07T05:16:47;96875.44;;;5.92;86.43
84683;BME280;74905;44.124;18.116;2024-03-07T05:19:33;96879.75;;;5.95;86.69
84683;BME280;74905;44.124;18.116;2024-03-07T05:21:59;96883.34;;;5.97;86.68
84683;BME280;74905;44.124;18.116;2024-03-07T05:24:24;96887.56;;;5.98;86.41
84683;BME280;74905;44.124;18.116;2024-03-07T05:26:50;96888.88;;;5.97;85.50
84683;BME280;74905;44.124;18.116;2024-03-07T05:29:18;96897.75;;;5.96;85.09
84683;BME280;74905;44.124;18.116;2024-03-07T05:31:44;96899.06;;;5.95;85.37
84683;BME280;74905;44.124;18.116;2024-03-07T05:34:13;96900.16;;;5.90;85.57
84683;BME280;74905;44.124;18.116;2024-03-07T05:36:38;96895.69;;;5.85;85.62
84683;BME280;74905;44.124;18.116;2024-03-07T05:39:14;96900.34;;;5.82;85.36
84683;BME280;74905;44.124;18.116;2024-03-07T05:41:41;96904.66;;;5.85;85.95
84683;BME280;74905;44.124;18.116;2024-03-07T05:44:08;96901.81;;;5.83;86.70
84683;BME280;74905;44.124;18.116;2024-03-07T05:46:41;96904.28;;;5.79;87.10
84683;BME280;74905;44.124;18.116;2024-03-07T05:49:12;96909.69;;;5.77;87.33
84683;BME280;74905;44.124;18.116;2024-03-07T05:51:37;96911.47;;;5.73;87.22
84683;BME280;74905;44.124;18.116;2024-03-07T05:54:03;96915.09;;;5.75;86.97
84683;BME280;74905;44.124;18.116;2024-03-07T05:56:33;96911.72;;;5.77;86.91
84683;BME280;74905;44.124;18.116;2024-03-07T05:59:02;96911.34;;;5.71;85.84
84683;BME280;74905;44.124;18.116;2024-03-07T06:01:31;96918.19;;;5.70;84.82
84683;BME280;74905;44.124;18.116;2024-03-07T06:03:58;96916.59;;;5.67;83.65
84683;BME280;74905;44.124;18.116;2024-03-07T06:06:25;96917.94;;;5.66;83.58
84683;BME280;74905;44.124;18.116;2024-03-07T06:08:51;96922.34;;;5.59;83.33
84683;BME280;74905;44.124;18.116;2024-03-07T06:11:16;96922.34;;;5.59;83.07
84683;BME280;74905;44.124;18.116;2024-03-07T06:13:47;96924.84;;;5.55;82.99
84683;BME280;74905;44.124;18.116;2024-03-07T06:16:13;96932.94;;;5.63;84.25
84683;BME280;74905;44.124;18.116;2024-03-07T06:18:42;96938.22;;;5.70;84.04
84683;BME280;74905;44.124;18.116;2024-03-07T06:21:08;96933.44;;;5.71;83.00
84683;BME280;74905;44.124;18.116;2024-03-07T06:23:34;96933.69;;;5.75;82.13
84683;BME280;74905;44.124;18.116;2024-03-07T06:26:00;96939.47;;;5.79;81.41
84683;BME280;74905;44.124;18.116;2024-03-07T06:28:26;96938.09;;;5.89;82.12
84683;BME280;74905;44.124;18.116;2024-03-07T06:30:55;96939.09;;;5.94;81.87
84683;BME280;74905;44.124;18.116;2024-03-07T06:33:21;96948.91;;;5.97;81.62
84683;BME280;74905;44.124;18.116;2024-03-07T06:35:50;96944.88;;;6.10;81.70
84683;BME280;74905;44.124;18.116;2024-03-07T06:38:17;96946.84;;;6.19;80.35
84683;BME280;74905;44.124;18.116;2024-03-07T06:40:42;96950.53;;;6.23;79.96
84683;BME280;74905;44.124;18.116;2024-03-07T06:43:09;96947.06;;;6.23;79.58
84683;BME280;74905;44.124;18.116;2024-03-07T06:45:38;96949.00;;;6.20;79.35
84683;BME280;74905;44.124;18.116;2024-03-07T06:48:05;96955.56;;;6.15;81.41
84683;BME280;74905;44.124;18.116;2024-03-07T06:50:35;96959.78;;;6.16;81.11
84683;BME280;74905;44.124;18.116;2024-03-07T06:53:03;96963.63;;;6.11;80.33
84683;BME280;74905;44.124;18.116;2024-03-07T06:55:29;96955.22;;;6.09;82.00
84683;BME280;74905;44.124;18.116;2024-03-07T06:57:54;96960.88;;;6.11;80.63
84683;BME280;74905;44.124;18.116;2024-03-07T07:00:20;96957.72;;;6.05;78.98
84683;BME280;74905;44.124;18.116;2024-03-07T07:02:49;96963.28;;;6.17;79.42
84683;BME280;74905;44.124;18.116;2024-03-07T07:05:16;96969.88;;;6.12;78.53
84683;BME280;74905;44.124;18.116;2024-03-07T07:07:49;96971.56;;;6.17;80.08
84683;BME280;74905;44.124;18.116;2024-03-07T07:10:16;96964.38;;;6.23;79.08
84683;BME280;74905;44.124;18.116;2024-03-07T07:12:47;96965.94;;;6.26;79.53
84683;BME280;74905;44.124;18.116;2024-03-07T07:15:15;96968.00;;;6.38;80.17
84683;BME280;74905;44.124;18.116;2024-03-07T07:17:47;96975.41;;;6.23;78.59
84683;BME280;74905;44.124;18.116;2024-03-07T07:20:23;96970.03;;;6.25;78.35
84683;BME280;74905;44.124;18.116;2024-03-07T07:22:52;96977.13;;;6.28;79.26
84683;BME280;74905;44.124;18.116;2024-03-07T07:25:18;96978.19;;;6.23;79.91
84683;BME280;74905;44.124;18.116;2024-03-07T07:27:48;96978.50;;;6.06;79.79
84683;BME280;74905;44.124;18.116;2024-03-07T07:30:15;96979.66;;;5.91;81.43
84683;BME280;74905;44.124;18.116;2024-03-07T07:32:42;96981.34;;;5.96;81.54
84683;BME280;74905;44.124;18.116;2024-03-07T07:35:09;96987.97;;;5.82;80.57
84683;BME280;74905;44.124;18.116;2024-03-07T07:37:39;96989.75;;;5.77;81.21
84683;BME280;74905;44.124;18.116;2024-03-07T07:40:07;96998.03;;;5.77;81.59
84683;BME280;74905;44.124;18.116;2024-03-07T07:42:37;96993.03;;;5.85;80.91
84683;BME280;74905;44.124;18.116;2024-03-07T07:45:10;97000.06;;;5.77;81.23
84683;BME280;74905;44.124;18.116;2024-03-07T07:47:44;96999.97;;;5.75;80.94
84683;BME280;74905;44.124;18.116;2024-03-07T07:50:16;97003.03;;;5.69;80.47
84683;BME280;74905;44.124;18.116;2024-03-07T07:52:57;97005.06;;;5.69;80.38
84683;BME280;74905;44.124;18.116;2024-03-07T07:55:27;97009.41;;;5.72;81.08
84683;BME280;74905;44.124;18.116;2024-03-07T07:57:58;97007.19;;;5.80;82.17
84683;BME280;74905;44.124;18.116;2024-03-07T08:00:26;97007.19;;;5.80;79.95
84683;BME280;74905;44.124;18.116;2024-03-07T08:03:18;97009.06;;;5.77;79.78
84683;BME280;74905;44.124;18.116;2024-03-07T08:05:44;97014.25;;;5.92;80.59
84683;BME280;74905;44.124;18.116;2024-03-07T08:08:13;97017.97;;;5.97;78.71
84683;BME280;74905;44.124;18.116;2024-03-07T08:10:44;97021.44;;;5.97;78.27
84683;BME280;74905;44.124;18.116;2024-03-07T08:13:13;97027.25;;;6.02;78.04
84683;BME280;74905;44.124;18.116;2024-03-07T08:15:39;97019.41;;;5.98;77.67
84683;BME280;74905;44.124;18.116;2024-03-07T08:18:05;97018.69;;;5.97;78.09
84683;BME280;74905;44.124;18.116;2024-03-07T08:20:37;97037.66;;;6.24;77.39
84683;BME280;74905;44.124;18.116;2024-03-07T08:23:04;97022.38;;;6.23;74.99
84683;BME280;74905;44.124;18.116;2024-03-07T08:25:30;97027.81;;;6.21;75.80
84683;BME280;74905;44.124;18.116;2024-03-07T08:27:56;97025.28;;;6.25;76.38
84683;BME280;74905;44.124;18.116;2024-03-07T08:30:23;97025.88;;;6.24;76.78
84683;BME280;74905;44.124;18.116;2024-03-07T08:32:51;97035.44;;;6.11;77.02
84683;BME280;74905;44.124;18.116;2024-03-07T08:35:20;97037.78;;;5.93;76.15
84683;BME280;74905;44.124;18.116;2024-03-07T08:37:48;97038.41;;;5.82;77.25
84683;BME280;74905;44.124;18.116;2024-03-07T08:40:24;97039.97;;;5.85;78.61
84683;BME280;74905;44.124;18.116;2024-03-07T08:42:52;97038.75;;;5.98;77.94
84683;BME280;74905;44.124;18.116;2024-03-07T08:45:19;97036.34;;;5.92;77.57
84683;BME280;74905;44.124;18.116;2024-03-07T08:47:49;97035.41;;;6.00;78.12
84683;BME280;74905;44.124;18.116;2024-03-07T08:50:15;97042.03;;;6.06;76.71
84683;BME280;74905;44.124;18.116;2024-03-07T08:52:44;97049.91;;;6.21;78.38
84683;BME280;74905;44.124;18.116;2024-03-07T08:55:12;97049.44;;;6.25;75.66
84683;BME280;74905;44.124;18.116;2024-03-07T08:57:41;97037.41;;;6.20;77.11
84683;BME280;74905;44.124;18.116;2024-03-07T09:00:07;97047.53;;;6.27;76.78
84683;BME280;74905;44.124;18.116;2024-03-07T09:02:38;97047.75;;;6.20;77.31
84683;BME280;74905;44.124;18.116;2024-03-07T09:05:05;97054.56;;;6.19;77.27
84683;BME280;74905;44.124;18.116;2024-03-07T09:07:31;97053.25;;;6.20;76.68
84683;BME280;74905;44.124;18.116;2024-03-07T09:09:57;97051.38;;;6.34;77.34
84683;BME280;74905;44.124;18.116;2024-03-07T09:12:23;97051.44;;;6.46;76.17
84683;BME280;74905;44.124;18.116;2024-03-07T09:14:51;97059.38;;;6.51;76.27
84683;BME280;74905;44.124;18.116;2024-03-07T09:17:21;97062.25;;;6.53;76.54
84683;BME280;74905;44.124;18.116;2024-03-07T09:19:47;97067.78;;;6.53;75.61
84683;BME280;74905;44.124;18.116;2024-03-07T09:22:18;97067.06;;;6.53;75.60
84683;BME280;74905;44.124;18.116;2024-03-07T09:24:44;97072.63;;;6.64;73.95
84683;BME280;74905;44.124;18.116;2024-03-07T09:27:09;97063.38;;;6.60;74.80
84683;BME280;74905;44.124;18.116;2024-03-07T09:29:35;97061.47;;;6.74;74.13
84683;BME280;74905;44.124;18.116;2024-03-07T09:32:01;97071.25;;;6.87;74.70
84683;BME280;74905;44.124;18.116;2024-03-07T09:34:27;97067.91;;;7.12;73.40
84683;BME280;74905;44.124;18.116;2024-03-07T09:36:56;97075.00;;;7.15;72.88
84683;BME280;74905;44.124;18.116;2024-03-07T09:39:22;97069.59;;;7.28;71.83
84683;BME280;74905;44.124;18.116;2024-03-07T09:41:49;97062.84;;;7.20;72.17
84683;BME280;74905;44.124;18.116;2024-03-07T09:44:15;97068.13;;;7.27;71.54
84683;BME280;74905;44.124;18.116;2024-03-07T09:46:50;97071.28;;;7.22;71.99
84683;BME280;74905;44.124;18.116;2024-03-07T09:49:17;97066.44;;;7.10;71.55
84683;BME280;74905;44.124;18.116;2024-03-07T09:51:47;97060.06;;;7.08;72.92
84683;BME280;74905;44.124;18.116;2024-03-07T09:54:26;97069.81;;;7.21;71.80
84683;BME280;74905;44.124;18.116;2024-03-07T09:56:53;97071.03;;;7.53;71.46
84683;BME280;74905;44.124;18.116;2024-03-07T09:59:20;97067.53;;;7.52;71.40
84683;BME280;74905;44.124;18.116;2024-03-07T10:01:50;97072.41;;;8.00;68.66
84683;BME280;74905;44.124;18.116;2024-03-07T10:04:25;97068.94;;;7.76;70.82
84683;BME280;74905;44.124;18.116;2024-03-07T10:06:54;97070.06;;;7.71;69.93
84683;BME280;74905;44.124;18.116;2024-03-07T10:09:21;97074.06;;;8.05;68.51
84683;BME280;74905;44.124;18.116;2024-03-07T10:11:57;97068.75;;;8.09;68.43
84683;BME280;74905;44.124;18.116;2024-03-07T10:14:23;97071.22;;;8.29;66.94
84683;BME280;74905;44.124;18.116;2024-03-07T10:16:49;97071.13;;;8.15;67.67
84683;BME280;74905;44.124;18.116;2024-03-07T10:19:15;97077.84;;;8.23;68.06
84683;BME280;74905;44.124;18.116;2024-03-07T10:21:41;97076.47;;;8.11;67.96
84683;BME280;74905;44.124;18.116;2024-03-07T10:24:07;97082.72;;;8.11;68.18
84683;BME280;74905;44.124;18.116;2024-03-07T10:26:37;97080.78;;;8.14;68.51
84683;BME280;74905;44.124;18.116;2024-03-07T10:29:07;97082.88;;;8.02;69.62
84683;BME280;74905;44.124;18.116;2024-03-07T10:31:36;97078.56;;;7.75;69.10
84683;BME280;74905;44.124;18.116;2024-03-07T10:34:04;97092.88;;;7.83;70.04
84683;BME280;74905;44.124;18.116;2024-03-07T10:36:31;97088.31;;;7.88;70.56
84683;BME280;74905;44.124;18.116;2024-03-07T10:39:00;97083.22;;;8.08;69.78
84683;BME280;74905;44.124;18.116;2024-03-07T10:41:28;97089.50;;;7.97;69.03
84683;BME280;74905;44.124;18.116;2024-03-07T10:43:57;97096.19;;;8.17;69.13
84683;BME280;74905;44.124;18.116;2024-03-07T10:46:26;97085.06;;;7.92;69.33
84683;BME280;74905;44.124;18.116;2024-03-07T10:48:55;97091.53;;;8.08;68.68
84683;BME280;74905;44.124;18.116;2024-03-07T10:51:38;97087.41;;;8.20;68.33
84683;BME280;74905;44.124;18.116;2024-03-07T10:54:36;97082.88;;;8.02;68.74
84683;BME280;74905;44.124;18.116;2024-03-07T11:00:02;97103.34;;;8.08;69.17
84683;BME280;74905;44.124;18.116;2024-03-07T11:02:48;97095.94;;;8.25;67.85
84683;BME280;74905;44.124;18.116;2024-03-07T11:05:18;97097.69;;;7.95;67.24
84683;BME280;74905;44.124;18.116;2024-03-07T11:07:44;97092.78;;;7.81;68.14
84683;BME280;74905;44.124;18.116;2024-03-07T11:10:10;97099.66;;;7.80;68.47
84683;BME280;74905;44.124;18.116;2024-03-07T11:12:39;97094.25;;;7.59;68.88
84683;BME280;74905;44.124;18.116;2024-03-07T11:15:08;97096.56;;;7.63;69.21
84683;BME280;74905;44.124;18.116;2024-03-07T11:17:44;97095.09;;;7.73;68.96
84683;BME280;74905;44.124;18.116;2024-03-07T11:20:33;97093.19;;;7.64;69.10
84683;BME280;74905;44.124;18.116;2024-03-07T11:22:59;97098.47;;;7.60;67.98
84683;BME280;74905;44.124;18.116;2024-03-07T11:28:01;97109.06;;;7.40;67.56
84683;BME280;74905;44.124;18.116;2024-03-07T11:30:27;97107.72;;;7.30;68.13
84683;BME280;74905;44.124;18.116;2024-03-07T11:32:54;97108.47;;;7.42;67.31
84683;BME280;74905;44.124;18.116;2024-03-07T11:35:21;97102.31;;;7.32;67.31
84683;BME280;74905;44.124;18.116;2024-03-07T11:37:59;97103.53;;;7.29;67.51
84683;BME280;74905;44.124;18.116;2024-03-07T11:42:53;97100.38;;;7.46;67.17
84683;BME280;74905;44.124;18.116;2024-03-07T11:45:20;97107.63;;;7.39;66.95
84683;BME280;74905;44.124;18.116;2024-03-07T11:47:58;97104.25;;;7.53;66.61
84683;BME280;74905;44.124;18.116;2024-03-07T11:50:38;97105.59;;;7.52;66.57
84683;BME280;74905;44.124;18.116;2024-03-07T11:53:07;97113.63;;;7.59;67.65
84683;BME280;74905;44.124;18.116;2024-03-07T11:55:38;97105.22;;;7.69;67.87
84683;BME280;74905;44.124;18.116;2024-03-07T11:58:20;97114.59;;;7.75;67.72
84683;BME280;74905;44.124;18.116;2024-03-07T12:00:50;97108.31;;;7.87;67.81
84683;BME280;74905;44.124;18.116;2024-03-07T12:03:20;97102.28;;;8.02;67.59
84683;BME280;74905;44.124;18.116;2024-03-07T12:05:51;97108.44;;;7.89;67.18
84683;BME280;74905;44.124;18.116;2024-03-07T12:08:17;97116.16;;;7.78;68.38
84683;BME280;74905;44.124;18.116;2024-03-07T12:10:44;97109.75;;;7.88;68.23
84683;BME280;74905;44.124;18.116;2024-03-07T12:13:11;97106.50;;;7.91;67.81
84683;BME280;74905;44.124;18.116;2024-03-07T12:15:38;97110.63;;;7.67;67.82
84683;BME280;74905;44.124;18.116;2024-03-07T12:18:04;97104.34;;;7.66;68.35
84683;BME280;74905;44.124;18.116;2024-03-07T12:20:37;97107.38;;;7.59;68.54
84683;BME280;74905;44.124;18.116;2024-03-07T12:23:05;97099.53;;;7.55;68.66
84683;BME280;74905;44.124;18.116;2024-03-07T12:25:33;97111.47;;;7.46;68.47
84683;BME280;74905;44.124;18.116;2024-03-07T12:30:30;97107.63;;;7.39;67.35
84683;BME280;74905;44.124;18.116;2024-03-07T12:33:03;97102.44;;;7.57;66.57
84683;BME280;74905;44.124;18.116;2024-03-07T12:35:30;97093.19;;;7.53;66.73
84683;BME280;74905;44.124;18.116;2024-03-07T12:37:58;97096.56;;;7.63;66.17
84683;BME280;74905;44.124;18.116;2024-03-07T12:40:25;97092.66;;;7.91;65.83
84683;BME280;74905;44.124;18.116;2024-03-07T12:42:54;97089.03;;;8.00;65.07
84683;BME280;74905;44.124;18.116;2024-03-07T12:45:20;97098.13;;;8.14;66.76
84683;BME280;74905;44.124;18.116;2024-03-07T12:47:47;97089.78;;;8.38;65.07
84683;BME280;74905;44.124;18.116;2024-03-07T12:50:17;97092.56;;;8.26;64.53
84683;BME280;74905;44.124;18.116;2024-03-07T12:52:43;97089.47;;;8.08;64.83
84683;BME280;74905;44.124;18.116;2024-03-07T12:55:09;97093.25;;;7.90;65.17
84683;BME280;74905;44.124;18.116;2024-03-07T12:57:35;97094.41;;;8.10;65.20
84683;BME280;74905;44.124;18.116;2024-03-07T13:00:06;97090.53;;;8.15;63.61
84683;BME280;74905;44.124;18.116;2024-03-07T13:02:42;97101.16;;;8.07;65.28
84683;BME280;74905;44.124;18.116;2024-03-07T13:05:10;97098.00;;;8.12;65.56
84683;BME280;74905;44.124;18.116;2024-03-07T13:07:47;97100.00;;;7.75;66.64
84683;BME280;74905;44.124;18.116;2024-03-07T13:10:14;97100.84;;;8.01;66.43
84683;BME280;74905;44.124;18.116;2024-03-07T13:12:42;97102.91;;;7.89;66.19
84683;BME280;74905;44.124;18.116;2024-03-07T13:15:09;97102.16;;;7.88;66.85